Weather History for Cody, WY

Change the Weather History Date:

Sunday, March 17, 2013

  Actual Average Record
Temperature  
Mean Temperature 35 °F -  
Max Temperature 42 °F 47 °F 68 °F (1916)
Min Temperature 26 °F 26 °F -7 °F (1965)
Degree Days  
Heating Degree Days 30    
Moisture  
Dew Point 18 °F    
Average Humidity 51    
Maximum Humidity 87    
Minimum Humidity 28    
Precipitation  
Precipitation 0.00 in - - ()
Sea Level Pressure  
Sea Level Pressure 29.59 in    
Wind  
Wind Speed 11 mph (West)    
Max Wind Speed 28 mph    
Max Gust Speed 37 mph    
Visibility 9 miles    
Events      
Averages and records for this station are not official NWS values.
T = Trace of Precipitation, MM = Missing Value Source: NWS Daily Summary

Daily Weather History Graph

Daily Weather History Graph

Search for Another Location

Airport:

Trip Planner

Search our weather history database for the weather conditions in past years. The results will help you decide how hot, cold, wet, or windy it might be!

Date:

Astronomy

Mar. 17, 2013 Rise Set
Actual Time 7:24 AM MDT 7:25 PM MDT
Civil Twilight 6:55 AM MDT 7:54 PM MDT
Nautical Twilight 6:21 AM MDT 8:28 PM MDT
Astronomical Twilight 5:46 AM MDT 9:02 PM MDT
Moon 10:26 AM MDT (3/17) 12:48 AM MDT (3/17)
Length of Visible Light 12h 58m
Length of Day
12h 00m
Waxing Crescent, 32% of the Moon is Illuminated
Mar 17
Waxing Crescent
Mar 19
First Quarter
Mar 27
Full
Apr 2
Last Quarter
Apr 10
New

Hourly Weather History & Observations

Time (MDT) Temp. Windchill Dew Point Humidity Pressure Visibility Wind Dir Wind Speed Gust Speed Precip Events Conditions
12:15 AM 42.8 °F 36.2 °F 17.6 °F 36% 29.64 in 10.0 mi South 12.7 mph - N/A   Partly Cloudy
12:35 AM 42.8 °F 36.2 °F 17.6 °F 36% 29.62 in 10.0 mi South 12.7 mph - N/A   Clear
12:55 AM 42.8 °F 37.5 °F 17.6 °F 36% 29.61 in 10.0 mi South 9.2 mph - N/A   Clear
1:16 AM 42.8 °F 37.0 °F 17.6 °F 36% 29.59 in 10.0 mi SSE 10.4 mph 18.4 mph N/A   Clear
1:35 AM 39.2 °F 33.0 °F 15.8 °F 39% 29.57 in 10.0 mi SSE 9.2 mph - N/A   Clear
1:55 AM 37.4 °F 30.3 °F 15.8 °F 41% 29.57 in 10.0 mi South 10.4 mph - N/A   Clear
2:15 AM 39.2 °F 33.0 °F 17.6 °F 42% 29.56 in 10.0 mi South 9.2 mph - N/A   Clear
2:35 AM 39.2 °F 32.0 °F 17.6 °F 42% 29.54 in 10.0 mi SSW 11.5 mph - N/A   Clear
2:55 AM 39.2 °F 33.6 °F 19.4 °F 45% 29.54 in 10.0 mi SSW 8.1 mph - N/A   Clear
3:15 AM 39.2 °F - 19.4 °F 45% 29.54 in 10.0 mi Calm Calm - N/A   Clear
3:55 AM 39.2 °F - 24.8 °F 56% 29.51 in 10.0 mi Calm Calm - N/A   Clear
4:15 AM 39.2 °F 35.9 °F 24.8 °F 56% 29.48 in 10.0 mi NNE 4.6 mph - N/A   Clear
4:35 AM 39.2 °F 37.0 °F 24.8 °F 56% 29.48 in 10.0 mi NNW 3.5 mph - N/A   Clear
4:55 AM 39.2 °F 37.0 °F 28.4 °F 65% 29.46 in 10.0 mi WNW 3.5 mph 17.3 mph N/A   Clear
5:15 AM 39.2 °F 31.2 °F 28.4 °F 65% 29.45 in 10.0 mi WSW 13.8 mph 19.6 mph N/A   Clear
5:35 AM 39.2 °F 29.8 °F 28.4 °F 65% 29.43 in 10.0 mi WSW 18.4 mph 29.9 mph N/A   Clear
5:55 AM 39.2 °F 29.8 °F 28.4 °F 65% 29.43 in 10.0 mi WSW 18.4 mph 27.6 mph N/A   Clear
6:15 AM 39.2 °F 29.3 °F 26.6 °F 61% 29.41 in 10.0 mi SW 20.7 mph 29.9 mph N/A   Clear
6:35 AM 39.2 °F 29.3 °F 26.6 °F 61% 29.40 in 10.0 mi WSW 20.7 mph 32.2 mph N/A   Clear
6:55 AM 39.2 °F 30.8 °F 28.4 °F 65% 29.40 in 10.0 mi West 15.0 mph 32.2 mph N/A   Clear
7:15 AM 39.2 °F 32.0 °F 26.6 °F 61% 29.41 in 10.0 mi NW 11.5 mph 25.3 mph N/A   Clear
7:35 AM 37.4 °F 27.8 °F 24.8 °F 60% 29.43 in 10.0 mi NW 17.3 mph 24.2 mph N/A   Clear
7:55 AM 39.2 °F 34.2 °F 24.8 °F 56% 29.43 in 10.0 mi NNE 6.9 mph 25.3 mph N/A   Mostly Cloudy
8:15 AM 39.2 °F 33.0 °F 19.4 °F 45% 29.44 in 10.0 mi NE 9.2 mph 20.7 mph N/A   Overcast
8:35 AM 39.2 °F 31.2 °F 17.6 °F 42% 29.45 in 10.0 mi East 13.8 mph 17.3 mph N/A   Overcast
8:55 AM 35.6 °F 25.5 °F 28.4 °F 75% 29.47 in 10.0 mi NNE 17.3 mph 20.7 mph N/A   Overcast
9:35 AM 33.8 °F 29.6 °F 28.4 °F 81% 29.48 in 10.0 mi NNW 4.6 mph - N/A   Mostly Cloudy
9:55 AM 39.2 °F 30.5 °F 17.6 °F 42% 29.47 in 10.0 mi WSW 16.1 mph 31.1 mph N/A   Mostly Cloudy
10:35 AM 37.4 °F 30.8 °F 17.6 °F 45% 29.48 in 10.0 mi NW 9.2 mph 25.3 mph N/A   Mostly Cloudy
10:55 AM 33.8 °F 23.9 °F 26.6 °F 75% 29.49 in 10.0 mi NNE 15.0 mph 19.6 mph N/A   Overcast
11:15 AM 33.8 °F 24.3 °F 26.6 °F 75% 29.50 in 10.0 mi NNE 13.8 mph - N/A   Overcast
11:35 AM 33.8 °F 25.8 °F 26.6 °F 75% 29.50 in 2.5 mi NNE 10.4 mph - N/A   Mostly Cloudy
11:55 AM 33.8 °F 23.2 °F 26.6 °F 75% 29.51 in 3.0 mi NNE 17.3 mph 20.7 mph N/A   Overcast
12:15 PM 32.0 °F 21.6 °F 28.4 °F 87% 29.52 in 2.5 mi NNE 15.0 mph - N/A   Mostly Cloudy
12:35 PM 30.2 °F 19.3 °F 24.8 °F 80% 29.54 in 9.0 mi NNE 15.0 mph 25.3 mph N/A   Overcast
12:55 PM 28.4 °F 19.7 °F 24.8 °F 86% 29.56 in 0.8 mi East 9.2 mph 25.3 mph N/A   Overcast
1:15 PM 28.4 °F 22.2 °F 24.8 °F 86% 29.57 in 2.0 mi North 5.8 mph - N/A   Overcast
1:35 PM 33.8 °F 23.9 °F 21.2 °F 60% 29.57 in 10.0 mi West 15.0 mph 19.6 mph N/A   Mostly Cloudy
1:55 PM 33.8 °F 23.2 °F 15.8 °F 48% 29.57 in 10.0 mi West 17.3 mph 25.3 mph N/A   Mostly Cloudy
2:15 PM 35.6 °F 25.5 °F 15.8 °F 44% 29.58 in 10.0 mi West 17.3 mph 25.3 mph N/A   Overcast
2:35 PM 35.6 °F 26.2 °F 12.2 °F 38% 29.58 in 10.0 mi West 15.0 mph 27.6 mph N/A   Overcast
3:15 PM 37.4 °F 25.4 °F 6.8 °F 28% 29.61 in 10.0 mi WNW 27.6 mph 36.8 mph N/A   Mostly Cloudy
3:36 PM 35.6 °F 25.2 °F 14.0 °F 41% 29.62 in 10.0 mi West 18.4 mph 27.6 mph N/A   Mostly Cloudy
4:15 PM 32.0 °F 22.1 °F 12.2 °F 44% 29.66 in 10.0 mi West 13.8 mph 27.6 mph N/A   Mostly Cloudy
4:35 PM 33.8 °F 24.8 °F 15.8 °F 48% 29.67 in 10.0 mi WSW 12.7 mph 17.3 mph N/A   Scattered Clouds
4:55 PM 32.0 °F 20.8 °F 15.8 °F 51% 29.69 in 10.0 mi WNW 17.3 mph 24.2 mph N/A   Scattered Clouds
5:15 PM 32.0 °F 23.0 °F 12.2 °F 44% 29.68 in 10.0 mi West 11.5 mph 20.7 mph N/A   Scattered Clouds
5:35 PM 32.0 °F 21.2 °F 12.2 °F 44% 29.69 in 10.0 mi WSW 16.1 mph 23.0 mph N/A   Clear
5:55 PM 33.8 °F 25.3 °F 10.4 °F 38% 29.70 in 10.0 mi West 11.5 mph 24.2 mph N/A   Clear
6:15 PM 32.0 °F 22.1 °F 10.4 °F 41% 29.70 in 10.0 mi West 13.8 mph 20.7 mph N/A   Partly Cloudy
6:35 PM 32.0 °F 22.1 °F 8.6 °F 38% 29.72 in 10.0 mi West 13.8 mph 23.0 mph N/A   Scattered Clouds
6:55 PM 30.2 °F 22.6 °F 8.6 °F 40% 29.72 in 10.0 mi West 8.1 mph 23.0 mph N/A   Partly Cloudy
7:15 PM 30.2 °F 23.4 °F 10.4 °F 44% 29.73 in 10.0 mi West 6.9 mph - N/A   Clear
7:35 PM 30.2 °F 20.8 °F 8.6 °F 40% 29.73 in 10.0 mi West 11.5 mph - N/A   Partly Cloudy
7:55 PM 30.2 °F 24.3 °F 8.6 °F 40% 29.75 in 10.0 mi West 5.8 mph - N/A   Scattered Clouds
8:15 PM 30.2 °F 24.3 °F 6.8 °F 37% 29.74 in 10.0 mi ENE 5.8 mph - N/A   Mostly Cloudy
8:35 PM 30.2 °F 26.7 °F 8.6 °F 40% 29.75 in 10.0 mi West 3.5 mph - N/A   Scattered Clouds
8:55 PM 30.2 °F 24.3 °F 6.8 °F 37% 29.76 in 10.0 mi WSW 5.8 mph - N/A   Clear
9:15 PM 30.2 °F 23.4 °F 6.8 °F 37% 29.77 in 10.0 mi West 6.9 mph - N/A   Clear
9:35 PM 30.2 °F 21.3 °F 6.8 °F 37% 29.78 in 10.0 mi West 10.4 mph 16.1 mph N/A   Clear
9:55 PM 28.4 °F 23.3 °F 6.8 °F 40% 29.79 in 10.0 mi NW 4.6 mph - N/A   Clear
10:35 PM 28.4 °F 21.2 °F 10.4 °F 47% 29.80 in 10.0 mi West 6.9 mph 18.4 mph N/A   Clear
10:55 PM 28.4 °F 18.0 °F 8.6 °F 43% 29.80 in 10.0 mi West 12.7 mph 21.9 mph N/A   Clear
11:15 PM 28.4 °F 19.1 °F 8.6 °F 43% 29.81 in 10.0 mi West 10.4 mph 21.9 mph N/A   Clear
11:35 PM 28.4 °F 19.7 °F 8.6 °F 43% 29.82 in 10.0 mi NW 9.2 mph - N/A   Clear
11:55 PM 26.6 °F 20.0 °F 10.4 °F 51% 29.83 in 10.0 mi WNW 5.8 mph - N/A   Clear